GMI245 EDDN-EDDE
Flight info
| Callsign | GMI245 |
|---|---|
| Flight time | 0h 22m |
| Altitude | 14000 |
| Route | ERETO1G/28 ERETO DCT LONLI M726 NARUS NARUS1V |
| Aircraft | B733/M-SDE2E3FGHIRWXY/LB1 |
Departure
| Time | 2026-05-04 19:37 |
|---|---|
| Airport | Nuremberg Airport (EDDN) |
Arrival
| Time | 2026-05-04 19:59 |
|---|---|
| Airport | Erfurt-Weimar Airport (EDDE) |
| Time | Latitude | Longitude | Altitude | Speed | Heading |
|---|---|---|---|---|---|
| 2026-05-04 19:12 | 49.49530 | 11.07661 | 1021 ft | 0 kts | 188° |
| 2026-05-04 19:29 | 49.49532 | 11.07661 | 1021 ft | 2 kts | 188° |
| 2026-05-04 19:29 | 49.49547 | 11.07665 | 1021 ft | 2 kts | 188° |
| 2026-05-04 19:29 | 49.49562 | 11.07668 | 1021 ft | 2 kts | 188° |
| 2026-05-04 19:30 | 49.49571 | 11.07670 | 1021 ft | 2 kts | 189° |
| 2026-05-04 19:30 | 49.49586 | 11.07668 | 1021 ft | 2 kts | 149° |
| 2026-05-04 19:30 | 49.49597 | 11.07652 | 1020 ft | 2 kts | 116° |
| 2026-05-04 19:30 | 49.49600 | 11.07639 | 1020 ft | 1 kts | 97° |
| 2026-05-04 19:31 | 49.49601 | 11.07630 | 1020 ft | 0 kts | 97° |
| 2026-05-04 19:31 | 49.49600 | 11.07630 | 1020 ft | 0 kts | 97° |
| 2026-05-04 19:32 | 49.49590 | 11.07730 | 1022 ft | 13 kts | 99° |
| 2026-05-04 19:33 | 49.49576 | 11.07881 | 1025 ft | 16 kts | 98° |
| 2026-05-04 19:33 | 49.49558 | 11.08073 | 1027 ft | 19 kts | 99° |
| 2026-05-04 19:33 | 49.49541 | 11.08249 | 1027 ft | 9 kts | 98° |
| 2026-05-04 19:33 | 49.49569 | 11.08347 | 1029 ft | 12 kts | 20° |
| 2026-05-04 19:34 | 49.49614 | 11.08431 | 1031 ft | 11 kts | 93° |
| 2026-05-04 19:34 | 49.49602 | 11.08570 | 1034 ft | 14 kts | 97° |
| 2026-05-04 19:34 | 49.49585 | 11.08744 | 1038 ft | 17 kts | 98° |
| 2026-05-04 19:34 | 49.49567 | 11.08944 | 1042 ft | 19 kts | 99° |
| 2026-05-04 19:35 | 49.49546 | 11.09152 | 1044 ft | 19 kts | 98° |
| 2026-05-04 19:35 | 49.49543 | 11.09374 | 1046 ft | 22 kts | 68° |
| 2026-05-04 19:35 | 49.49647 | 11.09541 | 1047 ft | 15 kts | 17° |
| 2026-05-04 19:35 | 49.49706 | 11.09480 | 1047 ft | 6 kts | 275° |
| 2026-05-04 19:36 | 49.49707 | 11.09463 | 1047 ft | 2 kts | 275° |
| 2026-05-04 19:36 | 49.49720 | 11.09315 | 1047 ft | 36 kts | 279° |
| 2026-05-04 19:36 | 49.49792 | 11.08598 | 1038 ft | 97 kts | 278° |
| 2026-05-04 19:36 | 49.49916 | 11.07315 | 1019 ft | 145 kts | 278° |
| 2026-05-04 19:37 | 49.50058 | 11.05642 | 1187 ft | 162 kts | 276° |
| 2026-05-04 19:37 | 49.50205 | 11.03915 | 1602 ft | 165 kts | 280° |
| 2026-05-04 19:37 | 49.50386 | 11.02174 | 1993 ft | 170 kts | 281° |
| 2026-05-04 19:37 | 49.50588 | 11.00260 | 2124 ft | 195 kts | 281° |
| 2026-05-04 19:38 | 49.50815 | 10.98030 | 2264 ft | 221 kts | 280° |
| 2026-05-04 19:38 | 49.51178 | 10.95689 | 2652 ft | 235 kts | 297° |
| 2026-05-04 19:38 | 49.52236 | 10.93683 | 3046 ft | 250 kts | 326° |
| 2026-05-04 19:38 | 49.53839 | 10.92671 | 3624 ft | 257 kts | 354° |
| 2026-05-04 19:39 | 49.55636 | 10.92622 | 4283 ft | 262 kts | 0° |
| 2026-05-04 19:39 | 49.57467 | 10.92649 | 4970 ft | 268 kts | 0° |
| 2026-05-04 19:39 | 49.59340 | 10.92682 | 5690 ft | 272 kts | 360° |
| 2026-05-04 19:39 | 49.61247 | 10.92722 | 6319 ft | 280 kts | 360° |
| 2026-05-04 19:40 | 49.63203 | 10.92766 | 6970 ft | 286 kts | 360° |
| 2026-05-04 19:40 | 49.65155 | 10.93251 | 7656 ft | 291 kts | 17° |
| 2026-05-04 19:40 | 49.67097 | 10.94183 | 8345 ft | 295 kts | 15° |
| 2026-05-04 19:40 | 49.69075 | 10.95076 | 9013 ft | 300 kts | 15° |
| 2026-05-04 19:41 | 49.71093 | 10.95949 | 9687 ft | 305 kts | 14° |
| 2026-05-04 19:41 | 49.73153 | 10.96818 | 10207 ft | 316 kts | 14° |
| 2026-05-04 19:41 | 49.75352 | 10.97731 | 10307 ft | 341 kts | 14° |
| 2026-05-04 19:41 | 49.77718 | 10.98705 | 10756 ft | 354 kts | 13° |
| 2026-05-04 19:42 | 49.80113 | 10.99688 | 11417 ft | 359 kts | 13° |
| 2026-05-04 19:42 | 49.82503 | 11.00667 | 12128 ft | 363 kts | 13° |
| 2026-05-04 19:42 | 49.84954 | 11.01670 | 12811 ft | 368 kts | 13° |
| 2026-05-04 19:42 | 49.87448 | 11.02690 | 13485 ft | 372 kts | 13° |
| 2026-05-04 19:43 | 49.89951 | 11.03715 | 13740 ft | 376 kts | 13° |
| 2026-05-04 19:43 | 49.92476 | 11.04751 | 13881 ft | 377 kts | 13° |
| 2026-05-04 19:43 | 49.94310 | 11.05504 | 13938 ft | 374 kts | 13° |
| 2026-05-04 19:43 | 49.96815 | 11.06533 | 13941 ft | 369 kts | 13° |
| 2026-05-04 19:44 | 49.99290 | 11.07550 | 13936 ft | 367 kts | 13° |
| 2026-05-04 19:44 | 50.01775 | 11.08572 | 13926 ft | 378 kts | 13° |
| 2026-05-04 19:44 | 50.04332 | 11.09624 | 13901 ft | 389 kts | 13° |
| 2026-05-04 19:44 | 50.06983 | 11.10718 | 13920 ft | 392 kts | 13° |
| 2026-05-04 19:45 | 50.09616 | 11.11805 | 13938 ft | 395 kts | 13° |
| 2026-05-04 19:45 | 50.12277 | 11.12903 | 13929 ft | 393 kts | 13° |
| 2026-05-04 19:45 | 50.14946 | 11.13757 | 13947 ft | 392 kts | 7° |
| 2026-05-04 19:45 | 50.17637 | 11.14418 | 13951 ft | 393 kts | 8° |
| 2026-05-04 19:46 | 50.20320 | 11.15126 | 13958 ft | 392 kts | 8° |
| 2026-05-04 19:46 | 50.23014 | 11.15866 | 13809 ft | 394 kts | 8° |
| 2026-05-04 19:46 | 50.25685 | 11.16612 | 13538 ft | 391 kts | 9° |
| 2026-05-04 19:46 | 50.28367 | 11.17368 | 13162 ft | 388 kts | 8° |
| 2026-05-04 19:47 | 50.30992 | 11.18111 | 12794 ft | 385 kts | 9° |
| 2026-05-04 19:47 | 50.33622 | 11.18857 | 12431 ft | 383 kts | 9° |
| 2026-05-04 19:47 | 50.36221 | 11.19595 | 12065 ft | 382 kts | 9° |
| 2026-05-04 19:47 | 50.38841 | 11.20341 | 11691 ft | 380 kts | 9° |
| 2026-05-04 19:48 | 50.41408 | 11.21073 | 11327 ft | 378 kts | 9° |
| 2026-05-04 19:48 | 50.43987 | 11.21808 | 10956 ft | 374 kts | 9° |
| 2026-05-04 19:48 | 50.46514 | 11.22531 | 10584 ft | 363 kts | 9° |
| 2026-05-04 19:48 | 50.48928 | 11.23222 | 10392 ft | 347 kts | 8° |
| 2026-05-04 19:49 | 50.51215 | 11.23877 | 10369 ft | 328 kts | 9° |
| 2026-05-04 19:49 | 50.53413 | 11.24507 | 10318 ft | 311 kts | 8° |
| 2026-05-04 19:49 | 50.55502 | 11.25105 | 10047 ft | 305 kts | 8° |
| 2026-05-04 19:49 | 50.57581 | 11.25701 | 9690 ft | 302 kts | 8° |
| 2026-05-04 19:50 | 50.59626 | 11.26288 | 9302 ft | 300 kts | 8° |
| 2026-05-04 19:50 | 50.61680 | 11.26878 | 8933 ft | 298 kts | 9° |
| 2026-05-04 19:50 | 50.63693 | 11.27457 | 8582 ft | 296 kts | 9° |
| 2026-05-04 19:50 | 50.65719 | 11.28041 | 8222 ft | 293 kts | 9° |
| 2026-05-04 19:51 | 50.67709 | 11.28616 | 7864 ft | 291 kts | 9° |
| 2026-05-04 19:51 | 50.69678 | 11.29183 | 7507 ft | 289 kts | 9° |
| 2026-05-04 19:51 | 50.71649 | 11.29752 | 7157 ft | 286 kts | 9° |
| 2026-05-04 19:51 | 50.73600 | 11.30316 | 6812 ft | 284 kts | 9° |
| 2026-05-04 19:52 | 50.75532 | 11.30874 | 6459 ft | 282 kts | 9° |
| 2026-05-04 19:52 | 50.77458 | 11.31432 | 6128 ft | 280 kts | 9° |
| 2026-05-04 19:52 | 50.79361 | 11.31983 | 5781 ft | 278 kts | 9° |
| 2026-05-04 19:52 | 50.81248 | 11.32530 | 5456 ft | 276 kts | 9° |
| 2026-05-04 19:53 | 50.83123 | 11.33075 | 5125 ft | 273 kts | 9° |
| 2026-05-04 19:53 | 50.84952 | 11.33606 | 4959 ft | 264 kts | 9° |
| 2026-05-04 19:53 | 50.86726 | 11.34124 | 4945 ft | 249 kts | 9° |
| 2026-05-04 19:53 | 50.88381 | 11.34607 | 4900 ft | 238 kts | 9° |
| 2026-05-04 19:54 | 50.90001 | 11.35077 | 4620 ft | 238 kts | 9° |
| 2026-05-04 19:54 | 50.91638 | 11.35279 | 4310 ft | 236 kts | 346° |
| 2026-05-04 19:54 | 50.93034 | 11.34039 | 4044 ft | 230 kts | 309° |
| 2026-05-04 19:54 | 50.93972 | 11.32028 | 3939 ft | 231 kts | 304° |
| 2026-05-04 19:55 | 50.94870 | 11.29941 | 3972 ft | 223 kts | 302° |
| 2026-05-04 19:55 | 50.95406 | 11.27759 | 4010 ft | 202 kts | 282° |
| 2026-05-04 19:55 | 50.95649 | 11.25600 | 4045 ft | 200 kts | 278° |
| 2026-05-04 19:55 | 50.95812 | 11.23396 | 4016 ft | 201 kts | 276° |
| 2026-05-04 19:56 | 50.95951 | 11.21224 | 3980 ft | 200 kts | 276° |
| 2026-05-04 19:56 | 50.96100 | 11.19019 | 3831 ft | 200 kts | 277° |
| 2026-05-04 19:56 | 50.96260 | 11.16850 | 3518 ft | 197 kts | 277° |
| 2026-05-04 19:56 | 50.96426 | 11.14735 | 3214 ft | 194 kts | 278° |
| 2026-05-04 19:57 | 50.96602 | 11.12633 | 2947 ft | 189 kts | 278° |
| 2026-05-04 19:57 | 50.96779 | 11.10605 | 2703 ft | 184 kts | 278° |
| 2026-05-04 19:57 | 50.96948 | 11.08624 | 2459 ft | 180 kts | 277° |
| 2026-05-04 19:57 | 50.97109 | 11.06712 | 2228 ft | 166 kts | 276° |
| 2026-05-04 19:58 | 50.97242 | 11.05006 | 2032 ft | 148 kts | 276° |
| 2026-05-04 19:58 | 50.97375 | 11.03447 | 1815 ft | 140 kts | 275° |
| 2026-05-04 19:58 | 50.97496 | 11.01930 | 1640 ft | 140 kts | 274° |
| 2026-05-04 19:58 | 50.97610 | 11.00412 | 1448 ft | 136 kts | 274° |
| 2026-05-04 19:59 | 50.97737 | 10.98920 | 1273 ft | 138 kts | 274° |
| 2026-05-04 19:59 | 50.97854 | 10.97409 | 1108 ft | 136 kts | 273° |
| 2026-05-04 19:59 | 50.97964 | 10.95977 | 1042 ft | 116 kts | 277° |
| 2026-05-04 19:59 | 50.98038 | 10.95086 | 1042 ft | 40 kts | 278° |
| 2026-05-04 20:00 | 50.98021 | 10.94874 | 1042 ft | 15 kts | 211° |
| 2026-05-04 20:00 | 50.97921 | 10.94912 | 1042 ft | 15 kts | 154° |
| 2026-05-04 20:00 | 50.97834 | 10.95007 | 1042 ft | 15 kts | 117° |
| 2026-05-04 20:00 | 50.97818 | 10.95175 | 1042 ft | 15 kts | 96° |
| 2026-05-04 20:01 | 50.97804 | 10.95353 | 1042 ft | 16 kts | 97° |
| 2026-05-04 20:01 | 50.97788 | 10.95536 | 1042 ft | 17 kts | 98° |
| 2026-05-04 20:01 | 50.97772 | 10.95725 | 1042 ft | 17 kts | 96° |
| 2026-05-04 20:01 | 50.97757 | 10.95922 | 1042 ft | 18 kts | 98° |
| 2026-05-04 20:02 | 50.97743 | 10.96125 | 1042 ft | 18 kts | 97° |
| 2026-05-04 20:02 | 50.97712 | 10.96241 | 1042 ft | 11 kts | 145° |
| 2026-05-04 20:02 | 50.97635 | 10.96241 | 1042 ft | 11 kts | 187° |
| 2026-05-04 20:02 | 50.97585 | 10.96181 | 1042 ft | 8 kts | 252° |
| 2026-05-04 20:03 | 50.97579 | 10.96153 | 1042 ft | 0 kts | 252° |